sensor_id;sensor_type;location;lat;lon;timestamp;temperature;humidity
12843;DHT22;35724;49.324;-123.118;2023-05-07T00:03:17;24.50;48.60
12843;DHT22;35724;49.324;-123.118;2023-05-07T00:13:26;24.50;48.70
12843;DHT22;35724;49.324;-123.118;2023-05-07T00:23:38;24.50;48.70
12843;DHT22;35724;49.324;-123.118;2023-05-07T00:33:52;24.50;48.20
12843;DHT22;35724;49.324;-123.118;2023-05-07T00:44:12;24.50;48.50
12843;DHT22;35724;49.324;-123.118;2023-05-07T00:54:26;24.50;48.40
12843;DHT22;35724;49.324;-123.118;2023-05-07T01:05:07;24.50;48.40
12843;DHT22;35724;49.324;-123.118;2023-05-07T01:15:23;24.60;48.40
12843;DHT22;35724;49.324;-123.118;2023-05-07T01:25:53;24.60;48.40
12843;DHT22;35724;49.324;-123.118;2023-05-07T01:36:04;24.60;48.20
12843;DHT22;35724;49.324;-123.118;2023-05-07T01:46:16;24.60;48.10
12843;DHT22;35724;49.324;-123.118;2023-05-07T01:56:27;24.60;48.20
12843;DHT22;35724;49.324;-123.118;2023-05-07T02:06:36;24.60;48.40
12843;DHT22;35724;49.324;-123.118;2023-05-07T02:16:48;24.60;48.80
12843;DHT22;35724;49.324;-123.118;2023-05-07T02:26:58;24.50;48.40
12843;DHT22;35724;49.324;-123.118;2023-05-07T02:37:06;24.50;48.10
12843;DHT22;35724;49.324;-123.118;2023-05-07T02:47:16;24.50;48.10
12843;DHT22;35724;49.324;-123.118;2023-05-07T02:57:23;24.50;48.40
12843;DHT22;35724;49.324;-123.118;2023-05-07T03:07:33;24.50;48.20
12843;DHT22;35724;49.324;-123.118;2023-05-07T03:17:41;24.50;48.40
12843;DHT22;35724;49.324;-123.118;2023-05-07T03:27:50;24.50;48.50
12843;DHT22;35724;49.324;-123.118;2023-05-07T03:38:01;24.50;48.50
12843;DHT22;35724;49.324;-123.118;2023-05-07T03:48:12;24.50;48.40
12843;DHT22;35724;49.324;-123.118;2023-05-07T03:58:19;24.60;48.50
12843;DHT22;35724;49.324;-123.118;2023-05-07T04:08:29;24.60;48.60
12843;DHT22;35724;49.324;-123.118;2023-05-07T04:18:37;24.50;48.60
12843;DHT22;35724;49.324;-123.118;2023-05-07T04:28:46;24.60;48.90
12843;DHT22;35724;49.324;-123.118;2023-05-07T04:38:54;24.80;50.90
12843;DHT22;35724;49.324;-123.118;2023-05-07T04:49:03;25.00;51.40
12843;DHT22;35724;49.324;-123.118;2023-05-07T04:59:37;25.00;51.00
12843;DHT22;35724;49.324;-123.118;2023-05-07T05:09:55;25.10;51.10
12843;DHT22;35724;49.324;-123.118;2023-05-07T05:20:02;25.20;51.30
12843;DHT22;35724;49.324;-123.118;2023-05-07T05:30:13;25.30;51.60
12843;DHT22;35724;49.324;-123.118;2023-05-07T05:40:27;25.40;51.60
12843;DHT22;35724;49.324;-123.118;2023-05-07T05:50:36;25.50;51.60
12843;DHT22;35724;49.324;-123.118;2023-05-07T06:00:46;25.60;51.80
12843;DHT22;35724;49.324;-123.118;2023-05-07T06:11:23;25.70;51.90
12843;DHT22;35724;49.324;-123.118;2023-05-07T06:21:32;25.70;51.80
12843;DHT22;35724;49.324;-123.118;2023-05-07T06:31:46;25.80;52.10
12843;DHT22;35724;49.324;-123.118;2023-05-07T06:41:59;25.80;52.20
12843;DHT22;35724;49.324;-123.118;2023-05-07T06:52:17;25.70;52.00
12843;DHT22;35724;49.324;-123.118;2023-05-07T07:02:29;25.70;51.80
12843;DHT22;35724;49.324;-123.118;2023-05-07T07:12:44;25.60;51.60
12843;DHT22;35724;49.324;-123.118;2023-05-07T07:22:51;25.60;51.50
12843;DHT22;35724;49.324;-123.118;2023-05-07T07:33:06;25.70;51.50
12843;DHT22;35724;49.324;-123.118;2023-05-07T07:43:17;25.70;51.30
12843;DHT22;35724;49.324;-123.118;2023-05-07T07:53:33;25.70;51.30
12843;DHT22;35724;49.324;-123.118;2023-05-07T08:03:44;25.70;51.10
12843;DHT22;35724;49.324;-123.118;2023-05-07T08:13:57;25.70;51.00
12843;DHT22;35724;49.324;-123.118;2023-05-07T08:24:09;25.70;50.90
12843;DHT22;35724;49.324;-123.118;2023-05-07T08:34:27;25.80;50.90
12843;DHT22;35724;49.324;-123.118;2023-05-07T08:44:40;25.80;50.70
12843;DHT22;35724;49.324;-123.118;2023-05-07T08:54:56;25.80;50.60
12843;DHT22;35724;49.324;-123.118;2023-05-07T09:05:10;25.90;50.60
12843;DHT22;35724;49.324;-123.118;2023-05-07T09:27:44;25.90;50.40
12843;DHT22;35724;49.324;-123.118;2023-05-07T09:37:57;25.90;50.30
12843;DHT22;35724;49.324;-123.118;2023-05-07T09:48:18;26.00;50.30
12843;DHT22;35724;49.324;-123.118;2023-05-07T09:58:34;26.00;50.30
12843;DHT22;35724;49.324;-123.118;2023-05-07T10:08:56;26.00;50.20
12843;DHT22;35724;49.324;-123.118;2023-05-07T10:19:08;26.00;50.10
12843;DHT22;35724;49.324;-123.118;2023-05-07T10:29:36;26.00;50.00
12843;DHT22;35724;49.324;-123.118;2023-05-07T10:39:50;26.00;49.90
12843;DHT22;35724;49.324;-123.118;2023-05-07T10:50:24;26.00;49.80
12843;DHT22;35724;49.324;-123.118;2023-05-07T11:00:42;26.10;49.80
12843;DHT22;35724;49.324;-123.118;2023-05-07T11:11:06;26.10;49.70
12843;DHT22;35724;49.324;-123.118;2023-05-07T11:21:38;26.10;49.70
12843;DHT22;35724;49.324;-123.118;2023-05-07T11:32:04;26.10;49.50
12843;DHT22;35724;49.324;-123.118;2023-05-07T11:42:27;26.10;49.50
12843;DHT22;35724;49.324;-123.118;2023-05-07T11:52:40;26.10;49.50
12843;DHT22;35724;49.324;-123.118;2023-05-07T12:03:04;26.20;49.40
12843;DHT22;35724;49.324;-123.118;2023-05-07T12:13:18;26.20;49.20
12843;DHT22;35724;49.324;-123.118;2023-05-07T12:23:33;26.20;49.20
12843;DHT22;35724;49.324;-123.118;2023-05-07T12:33:48;26.20;49.20
12843;DHT22;35724;49.324;-123.118;2023-05-07T12:43:59;26.20;49.00
12843;DHT22;35724;49.324;-123.118;2023-05-07T12:54:14;26.20;48.90
12843;DHT22;35724;49.324;-123.118;2023-05-07T13:04:36;26.30;48.90
12843;DHT22;35724;49.324;-123.118;2023-05-07T13:14:49;26.30;48.80
12843;DHT22;35724;49.324;-123.118;2023-05-07T13:25:02;26.30;48.70
12843;DHT22;35724;49.324;-123.118;2023-05-07T13:35:17;26.30;48.60
12843;DHT22;35724;49.324;-123.118;2023-05-07T13:45:32;26.30;48.60
12843;DHT22;35724;49.324;-123.118;2023-05-07T13:56:03;26.30;48.50
12843;DHT22;35724;49.324;-123.118;2023-05-07T14:06:18;26.40;48.50
12843;DHT22;35724;49.324;-123.118;2023-05-07T14:16:31;26.40;48.40
12843;DHT22;35724;49.324;-123.118;2023-05-07T14:26:40;26.40;48.40
12843;DHT22;35724;49.324;-123.118;2023-05-07T14:36:57;26.40;48.50
12843;DHT22;35724;49.324;-123.118;2023-05-07T14:47:10;26.40;48.50
12843;DHT22;35724;49.324;-123.118;2023-05-07T14:57:24;26.40;48.40
12843;DHT22;35724;49.324;-123.118;2023-05-07T15:07:45;26.50;48.40
12843;DHT22;35724;49.324;-123.118;2023-05-07T15:17:54;26.50;48.30
12843;DHT22;35724;49.324;-123.118;2023-05-07T15:28:05;26.50;48.40
12843;DHT22;35724;49.324;-123.118;2023-05-07T15:38:18;26.50;48.30
12843;DHT22;35724;49.324;-123.118;2023-05-07T15:48:28;26.50;48.40
12843;DHT22;35724;49.324;-123.118;2023-05-07T15:58:40;26.60;48.30
12843;DHT22;35724;49.324;-123.118;2023-05-07T16:08:51;26.50;48.60
12843;DHT22;35724;49.324;-123.118;2023-05-07T16:19:04;26.40;48.80
12843;DHT22;35724;49.324;-123.118;2023-05-07T16:29:15;26.40;49.00
12843;DHT22;35724;49.324;-123.118;2023-05-07T16:39:26;26.30;50.00
12843;DHT22;35724;49.324;-123.118;2023-05-07T17:00:09;26.50;48.90
12843;DHT22;35724;49.324;-123.118;2023-05-07T17:10:16;26.40;49.40
12843;DHT22;35724;49.324;-123.118;2023-05-07T17:20:29;26.50;49.10
12843;DHT22;35724;49.324;-123.118;2023-05-07T17:30:39;26.40;49.80
12843;DHT22;35724;49.324;-123.118;2023-05-07T17:40:54;26.40;49.60
12843;DHT22;35724;49.324;-123.118;2023-05-07T17:51:08;26.40;48.90
12843;DHT22;35724;49.324;-123.118;2023-05-07T18:01:24;26.40;48.60
12843;DHT22;35724;49.324;-123.118;2023-05-07T18:11:33;26.40;48.90
12843;DHT22;35724;49.324;-123.118;2023-05-07T18:21:47;26.40;49.10
12843;DHT22;35724;49.324;-123.118;2023-05-07T18:31:54;26.40;48.90
12843;DHT22;35724;49.324;-123.118;2023-05-07T18:42:04;26.40;49.20
12843;DHT22;35724;49.324;-123.118;2023-05-07T18:52:15;26.30;49.10
12843;DHT22;35724;49.324;-123.118;2023-05-07T19:02:26;26.30;48.50
12843;DHT22;35724;49.324;-123.118;2023-05-07T19:12:33;26.20;48.20
12843;DHT22;35724;49.324;-123.118;2023-05-07T19:22:42;26.20;48.10
12843;DHT22;35724;49.324;-123.118;2023-05-07T19:32:49;26.20;48.40
12843;DHT22;35724;49.324;-123.118;2023-05-07T19:42:58;26.30;47.80
12843;DHT22;35724;49.324;-123.118;2023-05-07T19:53:05;26.30;48.50
12843;DHT22;35724;49.324;-123.118;2023-05-07T20:03:14;26.40;48.30
12843;DHT22;35724;49.324;-123.118;2023-05-07T20:13:22;26.50;48.30
12843;DHT22;35724;49.324;-123.118;2023-05-07T20:23:32;26.40;47.60
12843;DHT22;35724;49.324;-123.118;2023-05-07T20:33:39;26.40;47.50
12843;DHT22;35724;49.324;-123.118;2023-05-07T20:43:48;26.30;46.90
12843;DHT22;35724;49.324;-123.118;2023-05-07T20:53:55;26.30;46.80
12843;DHT22;35724;49.324;-123.118;2023-05-07T21:04:04;26.20;48.00
12843;DHT22;35724;49.324;-123.118;2023-05-07T21:14:11;26.20;48.00
12843;DHT22;35724;49.324;-123.118;2023-05-07T21:24:20;26.20;48.40
12843;DHT22;35724;49.324;-123.118;2023-05-07T21:34:27;26.20;48.50
12843;DHT22;35724;49.324;-123.118;2023-05-07T21:44:36;26.20;48.50
12843;DHT22;35724;49.324;-123.118;2023-05-07T21:54:43;26.30;48.70
12843;DHT22;35724;49.324;-123.118;2023-05-07T22:04:52;26.30;48.90
12843;DHT22;35724;49.324;-123.118;2023-05-07T22:14:59;26.30;48.70
12843;DHT22;35724;49.324;-123.118;2023-05-07T22:25:09;26.30;48.60
12843;DHT22;35724;49.324;-123.118;2023-05-07T22:35:16;26.30;48.60
12843;DHT22;35724;49.324;-123.118;2023-05-07T22:45:26;26.30;48.40
12843;DHT22;35724;49.324;-123.118;2023-05-07T22:55:33;26.30;48.10
12843;DHT22;35724;49.324;-123.118;2023-05-07T23:05:42;26.20;47.80
12843;DHT22;35724;49.324;-123.118;2023-05-07T23:15:49;26.20;47.60
12843;DHT22;35724;49.324;-123.118;2023-05-07T23:25:57;26.20;47.40
12843;DHT22;35724;49.324;-123.118;2023-05-07T23:36:06;26.00;44.60
12843;DHT22;35724;49.324;-123.118;2023-05-07T23:46:15;25.70;44.60
12843;DHT22;35724;49.324;-123.118;2023-05-07T23:56:22;25.50;44.60
